KPHP

Philip Airport

Philip, South Dakota, USA
METAR KPHP 112355Z AUTO 31004KT 10SM CLR 01/M01 A2991 RMK AO2 SLP149 T00111011 10044 20011 56006
Observed Flight Rules
Dec-11 @ 23:55 UTC (60 minutes ago) Visual Flight Rules
Wind Visibility Clouds
310° at 4 knots 10 miles
  • Clear skies
Temperatures Readings
Current 1°C / 34°F
Dewpoint -1°C / 30°F
Humidity 87%
Altimeter 29.91" Hg
Pressure 1014.9 hPa
Elevation 672
METAR KPHP 112355Z AUTO 31004KT 10SM CLR 01/M01 A2991 RMK AO2 SLP149 T00111011 10044 20011 56006
Observed Flight Rules
Dec-11 @ 23:55 UTC
(60 minutes ago)
VFR
Wind Visibility
310° at 4 knots 10 miles
Clouds
  • Clear skies
Temperature Dewpoint
1°C / 34°F -1°C / 30°F
Humidity Altimeter Pressure
87% 29.91" Hg 1014.9 hPa